Flight Track Log - Related Links

Times and Time Zones

All times are in EDT time to prevent confusion due to time zone crossing. See the SKW5550 flight status page for this flight to view local times or setup timezone preferences in your user account.

Time Position Orientation Groundspeed Altitude Reporting Facility
EDT Latitude Longitude Course Direction KTS MPH feet Rate Location/Type
Sat 08:15:00 AM 44.3049 -108.7755 154° Southeast  Level FlightAware Approximate
Sat 08:16:00 AM 44.2022 -108.7131 158° South  Level FlightAware Approximate
Sat 08:17:00 AM 44.0982 -108.6550 159° South  Level FlightAware Approximate
Sat 08:18:00 AM 43.9939 -108.5981 159° South  Level FlightAware Approximate
Sat 08:18:45 AM 44.0967 -108.6742 142° Southeast 396 456 17,200  Level Salt Lake Center
Sat 08:19:00 AM 43.8903 -108.5387 157° South  Level FlightAware Approximate
Sat 08:19:46 AM 44.0092 -108.6103 152° Southeast 374 430 18,800  Level Salt Lake Center
Sat 08:20:00 AM 43.7870 -108.4785 157° South  Level FlightAware Approximate
Sat 08:20:46 AM 43.9047 -108.5506 158° South 366 421 20,800  Level Salt Lake Center
Sat 08:21:00 AM 43.6835 -108.4190 157° South  Level FlightAware Approximate
Sat 08:21:46 AM 43.8153 -108.5011 158° South 362 417 22,300  Level Salt Lake Center
Sat 08:22:00 AM 43.5800 -108.3599 158° South  Level FlightAware Approximate
Sat 08:22:47 AM 43.7217 -108.4472 157° South 359 413 23,700  Level Salt Lake Center
Sat 08:23:00 AM 43.4769 -108.2994 156° South  Level FlightAware Approximate
Sat 08:23:47 AM 43.6331 -108.3981 158° South 358 412 25,000  Level Salt Lake Center
Sat 08:24:00 AM 43.3852 -108.2125 142° Southeast  Level FlightAware Approximate
Sat 08:24:48 AM 43.5450 -108.3475 157° South 359 413 26,200  Level Salt Lake Center
Sat 08:25:48 AM 43.4431 -108.2831 155° Southeast 361 415 27,300 1,050 Climbing Salt Lake Center
Sat 08:26:48 AM 43.3628 -108.1939 141° Southeast 380 437 28,300 942 Climbing Salt Lake Center
Sat 08:27:49 AM 43.2831 -108.1092 142° Southeast 381 438 29,200 1,041 Climbing Salt Lake Center
Sat 08:28:49 AM 43.1886 -108.0103 143° Southeast 382 440 30,400 893 Climbing Salt Lake Center
Sat 08:29:50 AM 43.1081 -107.9250 142° Southeast 382 440 31,000 298 Climbing Salt Lake Center
Sat 08:30:50 AM 43.0247 -107.8389 143° Southeast 388 447 31,000  Level Salt Lake Center
Sat 08:31:50 AM 42.9217 -107.7300 142° Southeast 411 473 31,000  Level Salt Lake Center
Sat 08:32:51 AM 42.8308 -107.6361 143° Southeast 424 488 31,000  Level Salt Lake Center
Sat 08:33:51 AM 42.7383 -107.5378 142° Southeast 434 499 31,000  Level Salt Lake Center
Sat 08:34:52 AM 42.6439 -107.4397 143° Southeast 442 509 31,000  Level Salt Lake Center
Sat 08:35:52 AM 42.5331 -107.3267 143° Southeast 445 512 31,000  Level Salt Lake Center
Sat 08:36:52 AM 42.4369 -107.2272 143° Southeast 451 519 31,000  Level Salt Lake Center
Sat 08:37:53 AM 42.3383 -107.1342 145° Southeast 450 518 31,000  Level Salt Lake Center
Sat 08:38:53 AM 42.2214 -107.0325 147° Southeast 449 517 31,000  Level Salt Lake Center
Sat 08:39:54 AM 42.1206 -106.9436 147° Southeast 451 519 31,000  Level Salt Lake Center
Sat 08:40:54 AM 42.0181 -106.8528 147° Southeast 455 524 31,000  Level Salt Lake Center
Sat 08:41:55 AM 41.8994 -106.7489 147° Southeast 456 525 31,000  Level Salt Lake Center
Sat 08:42:55 AM 41.7992 -106.6611 147° Southeast 451 519 31,000  Level Salt Lake Center
Sat 08:43:56 AM 41.7006 -106.5792 148° Southeast 442 509 31,000  Level Salt Lake Center
Sat 08:44:56 AM 41.6006 -106.4922 147° Southeast 444 511 31,000  Level Salt Lake Center
Sat 08:45:26 AM 41.5461 -106.4439 146° Southeast 450 518 31,000  Level Denver Center
Sat 08:46:26 AM 41.4300 -106.3436 147° Southeast 448 516 31,000  Level Denver Center
Sat 08:47:27 AM 41.3283 -106.2575 148° Southeast 450 518 31,000  Level Denver Center
Sat 08:48:28 AM 41.2264 -106.1700 147° Southeast 448 516 31,000  Level Denver Center
Sat 08:49:29 AM 41.1103 -106.0711 147° Southeast 449 517 31,000  Level Denver Center
Sat 08:50:30 AM 41.0097 -105.9864 148° Southeast 450 518 31,000 -397 Level Denver Center
Sat 08:51:30 AM 40.9033 -105.8956 147° Southeast 455 524 30,200 -992 Descending Denver Center
Sat 08:52:31 AM 40.8142 -105.8231 148° Southeast 467 537 29,000 -1,475 Descending Denver Center
Sat 08:53:32 AM 40.6839 -105.7128 147° Southeast 465 535 27,200 -1,672 Descending Denver Center
Sat 08:54:33 AM 40.5792 -105.6250 148° Southeast 451 519 25,600 -1,770 Descending Denver Center
Sat 08:55:34 AM 40.4756 -105.5383 148° Southeast 443 510 23,600 -2,066 Descending Denver Center
Sat 08:56:35 AM 40.3614 -105.4411 147° Southeast 428 493 21,400 -1,785 Descending Denver Center
Sat 08:57:35 AM 40.2961 -105.3417 131° Southeast 360 414 20,000 -1,587 Descending Denver Center
Sat 08:58:36 AM 40.2369 -105.2500 130° Southeast 332 382 18,200 -1,721 Descending Denver Center
Sat 08:59:37 AM 40.1811 -105.1628 130° Southeast 315 362 16,500 -1,377 Descending Denver Center
Sat 09:00:38 AM 40.1217 -105.0697 130° Southeast 312 359 15,400 -1,033 Descending Denver Center
Sat 09:01:39 AM 40.0625 -104.9783 130° Southeast 326 375 14,400 -934 Descending Denver Center
Sat 09:02:40 AM 40.0058 -104.8900 130° Southeast 318 366 13,500 -942 Descending Denver Center
Sat 09:03:40 AM 39.9467 -104.8119 135° Southeast 300 345 12,500 -1,289 Descending Denver Center
Sat 09:04:41 AM 39.8553 -104.8078 178° South 310 357 10,900 -738 Descending Denver Center
Sat 09:05:42 AM 39.7764 -104.8100 181° South 281 323 11,000 -295 Climbing Denver Center
Sat 09:06:43 AM 39.7058 -104.8111 181° South 259 298 10,300 -1,033 Descending Denver Center
Sat 09:07:44 AM 39.6628 -104.7622 139° Southeast 275 316 8,900 -1,377 Descending Denver Center

Login

Don't have an account? Register now (free) for customized features, flight alerts, and more!